sensor_id;sensor_type;location;lat;lon;timestamp;pressure;altitude;pressure_sealevel;temperature
64175;BMP280;50469;50.438;-119.202;2023-07-31T00:00:47;96834.66;;;32.13
64175;BMP280;50469;50.438;-119.202;2023-07-31T00:03:15;96839.50;;;32.05
64175;BMP280;50469;50.438;-119.202;2023-07-31T00:05:44;96829.94;;;32.23
64175;BMP280;50469;50.438;-119.202;2023-07-31T00:08:12;96829.91;;;31.98
64175;BMP280;50469;50.438;-119.202;2023-07-31T00:10:43;96833.19;;;31.32
64175;BMP280;50469;50.438;-119.202;2023-07-31T00:13:13;96829.69;;;32.04
64175;BMP280;50469;50.438;-119.202;2023-07-31T00:15:42;96830.69;;;31.99
64175;BMP280;50469;50.438;-119.202;2023-07-31T00:18:13;96829.81;;;32.14
64175;BMP280;50469;50.438;-119.202;2023-07-31T00:20:41;96821.22;;;31.69
64175;BMP280;50469;50.438;-119.202;2023-07-31T00:23:10;96820.22;;;32.15
64175;BMP280;50469;50.438;-119.202;2023-07-31T00:25:38;96818.06;;;31.73
64175;BMP280;50469;50.438;-119.202;2023-07-31T00:28:08;96815.38;;;31.90
64175;BMP280;50469;50.438;-119.202;2023-07-31T00:30:42;96814.44;;;31.95
64175;BMP280;50469;50.438;-119.202;2023-07-31T00:33:10;96807.91;;;31.76
64175;BMP280;50469;50.438;-119.202;2023-07-31T00:35:38;96804.63;;;32.02
64175;BMP280;50469;50.438;-119.202;2023-07-31T00:38:08;96813.97;;;31.82
64175;BMP280;50469;50.438;-119.202;2023-07-31T00:40:37;96818.69;;;31.89
64175;BMP280;50469;50.438;-119.202;2023-07-31T00:43:05;96807.88;;;31.83
64175;BMP280;50469;50.438;-119.202;2023-07-31T00:45:36;96805.88;;;31.76
64175;BMP280;50469;50.438;-119.202;2023-07-31T00:48:04;96807.25;;;31.92
64175;BMP280;50469;50.438;-119.202;2023-07-31T00:50:36;96803.38;;;31.95
64175;BMP280;50469;50.438;-119.202;2023-07-31T00:53:04;96798.00;;;31.65
64175;BMP280;50469;50.438;-119.202;2023-07-31T00:55:33;96799.03;;;31.77
64175;BMP280;50469;50.438;-119.202;2023-07-31T00:58:01;96801.84;;;31.69
64175;BMP280;50469;50.438;-119.202;2023-07-31T01:00:32;96799.44;;;31.33
64175;BMP280;50469;50.438;-119.202;2023-07-31T01:03:00;96795.84;;;31.56
64175;BMP280;50469;50.438;-119.202;2023-07-31T01:05:46;96799.16;;;31.54
64175;BMP280;50469;50.438;-119.202;2023-07-31T01:08:46;96801.69;;;31.60
64175;BMP280;50469;50.438;-119.202;2023-07-31T01:13:50;96799.94;;;31.47
64175;BMP280;50469;50.438;-119.202;2023-07-31T01:16:19;96800.03;;;31.16
64175;BMP280;50469;50.438;-119.202;2023-07-31T01:18:47;96797.78;;;31.30
64175;BMP280;50469;50.438;-119.202;2023-07-31T01:24:00;96790.41;;;31.25
64175;BMP280;50469;50.438;-119.202;2023-07-31T01:26:34;96799.88;;;31.07
64175;BMP280;50469;50.438;-119.202;2023-07-31T01:29:20;96790.13;;;30.98
64175;BMP280;50469;50.438;-119.202;2023-07-31T01:31:55;96788.28;;;31.01
64175;BMP280;50469;50.438;-119.202;2023-07-31T01:34:25;96791.22;;;30.95
64175;BMP280;50469;50.438;-119.202;2023-07-31T01:36:57;96789.19;;;30.96
64175;BMP280;50469;50.438;-119.202;2023-07-31T01:39:26;96789.44;;;30.82
64175;BMP280;50469;50.438;-119.202;2023-07-31T01:41:54;96793.53;;;30.35
64175;BMP280;50469;50.438;-119.202;2023-07-31T01:44:25;96794.25;;;30.59
64175;BMP280;50469;50.438;-119.202;2023-07-31T01:46:56;96794.81;;;30.42
64175;BMP280;50469;50.438;-119.202;2023-07-31T01:49:24;96792.22;;;30.44
64175;BMP280;50469;50.438;-119.202;2023-07-31T01:51:52;96793.88;;;30.32
64175;BMP280;50469;50.438;-119.202;2023-07-31T01:54:20;96802.34;;;30.26
64175;BMP280;50469;50.438;-119.202;2023-07-31T01:56:48;96803.41;;;30.16
64175;BMP280;50469;50.438;-119.202;2023-07-31T01:59:18;96802.50;;;30.21
64175;BMP280;50469;50.438;-119.202;2023-07-31T02:01:47;96806.38;;;30.10
64175;BMP280;50469;50.438;-119.202;2023-07-31T02:04:15;96812.03;;;29.89
64175;BMP280;50469;50.438;-119.202;2023-07-31T02:06:44;96810.91;;;29.85
64175;BMP280;50469;50.438;-119.202;2023-07-31T02:09:12;96814.56;;;29.72
64175;BMP280;50469;50.438;-119.202;2023-07-31T02:11:43;96814.72;;;29.74
64175;BMP280;50469;50.438;-119.202;2023-07-31T02:14:11;96825.75;;;29.66
64175;BMP280;50469;50.438;-119.202;2023-07-31T02:16:42;96818.50;;;29.48
64175;BMP280;50469;50.438;-119.202;2023-07-31T02:19:10;96823.50;;;29.57
64175;BMP280;50469;50.438;-119.202;2023-07-31T02:21:38;96822.16;;;29.43
64175;BMP280;50469;50.438;-119.202;2023-07-31T02:24:06;96815.47;;;29.31
64175;BMP280;50469;50.438;-119.202;2023-07-31T02:26:37;96814.03;;;29.09
64175;BMP280;50469;50.438;-119.202;2023-07-31T02:29:08;96819.38;;;29.07
64175;BMP280;50469;50.438;-119.202;2023-07-31T02:31:36;96818.66;;;28.85
64175;BMP280;50469;50.438;-119.202;2023-07-31T02:34:07;96825.25;;;28.82
64175;BMP280;50469;50.438;-119.202;2023-07-31T02:36:37;96818.41;;;28.75
64175;BMP280;50469;50.438;-119.202;2023-07-31T02:39:06;96830.72;;;28.74
64175;BMP280;50469;50.438;-119.202;2023-07-31T02:41:36;96817.53;;;28.60
64175;BMP280;50469;50.438;-119.202;2023-07-31T02:44:07;96824.50;;;28.53
64175;BMP280;50469;50.438;-119.202;2023-07-31T02:46:35;96822.91;;;28.44
64175;BMP280;50469;50.438;-119.202;2023-07-31T02:49:06;96822.59;;;28.27
64175;BMP280;50469;50.438;-119.202;2023-07-31T02:51:34;96825.78;;;28.18
64175;BMP280;50469;50.438;-119.202;2023-07-31T02:54:05;96832.25;;;28.07
64175;BMP280;50469;50.438;-119.202;2023-07-31T02:56:33;96824.50;;;27.85
64175;BMP280;50469;50.438;-119.202;2023-07-31T02:59:02;96828.19;;;27.87
64175;BMP280;50469;50.438;-119.202;2023-07-31T03:01:34;96824.31;;;27.69
64175;BMP280;50469;50.438;-119.202;2023-07-31T03:04:02;96831.13;;;27.55
64175;BMP280;50469;50.438;-119.202;2023-07-31T03:06:30;96830.59;;;27.43
64175;BMP280;50469;50.438;-119.202;2023-07-31T03:09:01;96830.03;;;27.45
64175;BMP280;50469;50.438;-119.202;2023-07-31T03:11:29;96836.72;;;27.36
64175;BMP280;50469;50.438;-119.202;2023-07-31T03:13:57;96832.28;;;27.20
64175;BMP280;50469;50.438;-119.202;2023-07-31T03:16:28;96857.91;;;27.09
64175;BMP280;50469;50.438;-119.202;2023-07-31T03:18:56;96854.66;;;27.11
64175;BMP280;50469;50.438;-119.202;2023-07-31T03:21:24;96857.38;;;26.98
64175;BMP280;50469;50.438;-119.202;2023-07-31T03:23:55;96854.28;;;26.88
64175;BMP280;50469;50.438;-119.202;2023-07-31T03:26:23;96872.53;;;26.72
64175;BMP280;50469;50.438;-119.202;2023-07-31T03:28:54;96869.47;;;26.76
64175;BMP280;50469;50.438;-119.202;2023-07-31T03:31:23;96874.28;;;26.56
64175;BMP280;50469;50.438;-119.202;2023-07-31T03:33:54;96883.22;;;26.57
64175;BMP280;50469;50.438;-119.202;2023-07-31T03:36:22;96894.91;;;26.44
64175;BMP280;50469;50.438;-119.202;2023-07-31T03:38:52;96899.63;;;26.43
64175;BMP280;50469;50.438;-119.202;2023-07-31T03:41:20;96909.28;;;26.50
64175;BMP280;50469;50.438;-119.202;2023-07-31T03:43:50;96913.44;;;26.19
64175;BMP280;50469;50.438;-119.202;2023-07-31T03:46:21;96925.44;;;25.73
64175;BMP280;50469;50.438;-119.202;2023-07-31T03:48:52;96926.22;;;25.92
64175;BMP280;50469;50.438;-119.202;2023-07-31T03:51:20;96941.38;;;25.74
64175;BMP280;50469;50.438;-119.202;2023-07-31T03:53:51;96950.69;;;25.60
64175;BMP280;50469;50.438;-119.202;2023-07-31T03:56:19;96952.69;;;25.65
64175;BMP280;50469;50.438;-119.202;2023-07-31T03:58:49;96952.09;;;25.42
64175;BMP280;50469;50.438;-119.202;2023-07-31T04:01:18;96952.44;;;24.97
64175;BMP280;50469;50.438;-119.202;2023-07-31T04:03:46;96947.28;;;24.88
64175;BMP280;50469;50.438;-119.202;2023-07-31T04:06:14;96953.53;;;24.83
64175;BMP280;50469;50.438;-119.202;2023-07-31T04:08:42;96946.34;;;25.16
64175;BMP280;50469;50.438;-119.202;2023-07-31T04:11:11;96955.94;;;25.33
64175;BMP280;50469;50.438;-119.202;2023-07-31T04:13:39;96961.16;;;24.96
64175;BMP280;50469;50.438;-119.202;2023-07-31T04:16:07;96965.53;;;24.74
64175;BMP280;50469;50.438;-119.202;2023-07-31T04:18:35;96963.00;;;24.82
64175;BMP280;50469;50.438;-119.202;2023-07-31T04:21:03;96963.28;;;24.73
64175;BMP280;50469;50.438;-119.202;2023-07-31T04:23:31;96967.75;;;24.76
64175;BMP280;50469;50.438;-119.202;2023-07-31T04:25:59;96974.78;;;24.66
64175;BMP280;50469;50.438;-119.202;2023-07-31T04:28:27;96978.06;;;24.53
64175;BMP280;50469;50.438;-119.202;2023-07-31T04:30:58;96980.06;;;24.58
64175;BMP280;50469;50.438;-119.202;2023-07-31T04:33:28;96981.56;;;24.48
64175;BMP280;50469;50.438;-119.202;2023-07-31T04:35:57;96984.56;;;24.44
64175;BMP280;50469;50.438;-119.202;2023-07-31T04:38:28;96980.38;;;24.37
64175;BMP280;50469;50.438;-119.202;2023-07-31T04:40:56;96990.84;;;24.28
64175;BMP280;50469;50.438;-119.202;2023-07-31T04:43:24;96988.84;;;24.40
64175;BMP280;50469;50.438;-119.202;2023-07-31T04:45:52;96994.31;;;24.34
64175;BMP280;50469;50.438;-119.202;2023-07-31T04:48:23;97003.34;;;24.06
64175;BMP280;50469;50.438;-119.202;2023-07-31T04:50:51;97002.38;;;23.93
64175;BMP280;50469;50.438;-119.202;2023-07-31T04:53:22;96996.03;;;24.31
64175;BMP280;50469;50.438;-119.202;2023-07-31T04:55:55;96999.00;;;24.33
64175;BMP280;50469;50.438;-119.202;2023-07-31T04:58:23;97003.78;;;24.22
64175;BMP280;50469;50.438;-119.202;2023-07-31T05:00:54;97000.59;;;24.12
64175;BMP280;50469;50.438;-119.202;2023-07-31T05:03:22;97012.03;;;23.82
64175;BMP280;50469;50.438;-119.202;2023-07-31T05:05:52;97011.31;;;23.54
64175;BMP280;50469;50.438;-119.202;2023-07-31T05:08:20;97009.31;;;23.43
64175;BMP280;50469;50.438;-119.202;2023-07-31T05:10:53;97011.66;;;22.96
64175;BMP280;50469;50.438;-119.202;2023-07-31T05:13:22;97009.66;;;22.85
64175;BMP280;50469;50.438;-119.202;2023-07-31T05:15:50;97018.63;;;22.92
64175;BMP280;50469;50.438;-119.202;2023-07-31T05:18:18;97006.66;;;22.78
64175;BMP280;50469;50.438;-119.202;2023-07-31T05:20:46;97017.00;;;22.62
64175;BMP280;50469;50.438;-119.202;2023-07-31T05:23:14;97018.63;;;22.43
64175;BMP280;50469;50.438;-119.202;2023-07-31T05:25:44;97011.53;;;22.20
64175;BMP280;50469;50.438;-119.202;2023-07-31T05:28:12;97016.66;;;22.06
64175;BMP280;50469;50.438;-119.202;2023-07-31T05:30:41;97020.94;;;22.19
64175;BMP280;50469;50.438;-119.202;2023-07-31T05:33:09;97023.44;;;22.22
64175;BMP280;50469;50.438;-119.202;2023-07-31T05:35:40;97028.59;;;22.14
64175;BMP280;50469;50.438;-119.202;2023-07-31T05:38:08;97024.00;;;21.95
64175;BMP280;50469;50.438;-119.202;2023-07-31T05:40:42;97036.84;;;21.88
64175;BMP280;50469;50.438;-119.202;2023-07-31T05:43:11;97032.28;;;21.80
64175;BMP280;50469;50.438;-119.202;2023-07-31T05:45:42;97044.03;;;21.86
64175;BMP280;50469;50.438;-119.202;2023-07-31T05:48:10;97040.19;;;22.04
64175;BMP280;50469;50.438;-119.202;2023-07-31T05:50:38;97048.66;;;21.80
64175;BMP280;50469;50.438;-119.202;2023-07-31T05:53:09;97053.03;;;21.72
64175;BMP280;50469;50.438;-119.202;2023-07-31T05:55:40;97054.09;;;21.80
64175;BMP280;50469;50.438;-119.202;2023-07-31T05:58:08;97060.16;;;21.89
64175;BMP280;50469;50.438;-119.202;2023-07-31T06:00:36;97060.16;;;21.63
64175;BMP280;50469;50.438;-119.202;2023-07-31T06:03:07;97059.22;;;20.64
64175;BMP280;50469;50.438;-119.202;2023-07-31T06:05:37;97070.22;;;20.90
64175;BMP280;50469;50.438;-119.202;2023-07-31T06:08:08;97065.31;;;21.15
64175;BMP280;50469;50.438;-119.202;2023-07-31T06:10:36;97070.91;;;21.26
64175;BMP280;50469;50.438;-119.202;2023-07-31T06:13:04;97071.50;;;21.36
64175;BMP280;50469;50.438;-119.202;2023-07-31T06:15:32;97073.41;;;21.30
64175;BMP280;50469;50.438;-119.202;2023-07-31T06:18:03;97078.69;;;21.33
64175;BMP280;50469;50.438;-119.202;2023-07-31T06:20:31;97075.97;;;21.59
64175;BMP280;50469;50.438;-119.202;2023-07-31T06:22:59;97085.22;;;21.67
64175;BMP280;50469;50.438;-119.202;2023-07-31T06:25:30;97094.91;;;20.87
64175;BMP280;50469;50.438;-119.202;2023-07-31T06:27:58;97095.19;;;20.89
64175;BMP280;50469;50.438;-119.202;2023-07-31T06:30:26;97105.63;;;20.76
64175;BMP280;50469;50.438;-119.202;2023-07-31T06:32:55;97101.44;;;20.60
64175;BMP280;50469;50.438;-119.202;2023-07-31T06:35:28;97092.94;;;20.08
64175;BMP280;50469;50.438;-119.202;2023-07-31T06:38:01;97104.09;;;20.25
64175;BMP280;50469;50.438;-119.202;2023-07-31T06:40:30;97100.63;;;20.24
64175;BMP280;50469;50.438;-119.202;2023-07-31T06:43:00;97098.25;;;19.72
64175;BMP280;50469;50.438;-119.202;2023-07-31T06:45:32;97107.59;;;19.57
64175;BMP280;50469;50.438;-119.202;2023-07-31T06:48:03;97107.25;;;19.40
64175;BMP280;50469;50.438;-119.202;2023-07-31T06:50:32;97114.81;;;19.60
64175;BMP280;50469;50.438;-119.202;2023-07-31T06:53:00;97107.06;;;19.43
64175;BMP280;50469;50.438;-119.202;2023-07-31T06:55:33;97118.91;;;19.31
64175;BMP280;50469;50.438;-119.202;2023-07-31T06:58:01;97109.38;;;19.36
64175;BMP280;50469;50.438;-119.202;2023-07-31T07:00:29;97123.94;;;18.90
64175;BMP280;50469;50.438;-119.202;2023-07-31T07:03:00;97121.78;;;18.80
64175;BMP280;50469;50.438;-119.202;2023-07-31T07:05:28;97125.13;;;18.56
64175;BMP280;50469;50.438;-119.202;2023-07-31T07:07:56;97128.22;;;18.82
64175;BMP280;50469;50.438;-119.202;2023-07-31T07:10:25;97125.25;;;19.04
64175;BMP280;50469;50.438;-119.202;2023-07-31T07:12:55;97140.63;;;18.65
64175;BMP280;50469;50.438;-119.202;2023-07-31T07:15:23;97142.47;;;18.59
64175;BMP280;50469;50.438;-119.202;2023-07-31T07:17:51;97140.50;;;18.59
64175;BMP280;50469;50.438;-119.202;2023-07-31T07:20:22;97135.63;;;18.72
64175;BMP280;50469;50.438;-119.202;2023-07-31T07:22:50;97143.44;;;19.13
64175;BMP280;50469;50.438;-119.202;2023-07-31T07:25:20;97147.84;;;19.10
64175;BMP280;50469;50.438;-119.202;2023-07-31T07:27:48;97150.00;;;18.54
64175;BMP280;50469;50.438;-119.202;2023-07-31T07:30:17;97158.38;;;18.84
64175;BMP280;50469;50.438;-119.202;2023-07-31T07:32:45;97163.09;;;18.65
64175;BMP280;50469;50.438;-119.202;2023-07-31T07:35:15;97151.22;;;18.96
64175;BMP280;50469;50.438;-119.202;2023-07-31T07:37:45;97151.31;;;19.59
64175;BMP280;50469;50.438;-119.202;2023-07-31T07:40:13;97159.16;;;20.34
64175;BMP280;50469;50.438;-119.202;2023-07-31T07:42:41;97161.69;;;20.23
64175;BMP280;50469;50.438;-119.202;2023-07-31T07:45:09;97157.56;;;20.57
64175;BMP280;50469;50.438;-119.202;2023-07-31T07:47:40;97163.59;;;20.82
64175;BMP280;50469;50.438;-119.202;2023-07-31T07:50:11;97169.50;;;20.80
64175;BMP280;50469;50.438;-119.202;2023-07-31T07:52:39;97175.91;;;20.77
64175;BMP280;50469;50.438;-119.202;2023-07-31T07:55:08;97171.56;;;20.85
64175;BMP280;50469;50.438;-119.202;2023-07-31T07:57:38;97179.44;;;20.98
64175;BMP280;50469;50.438;-119.202;2023-07-31T08:00:11;97176.78;;;21.04
64175;BMP280;50469;50.438;-119.202;2023-07-31T08:02:40;97179.66;;;21.15
64175;BMP280;50469;50.438;-119.202;2023-07-31T08:05:08;97186.34;;;20.79
64175;BMP280;50469;50.438;-119.202;2023-07-31T08:07:36;97180.38;;;19.91
64175;BMP280;50469;50.438;-119.202;2023-07-31T08:10:05;97182.22;;;19.37
64175;BMP280;50469;50.438;-119.202;2023-07-31T08:12:33;97188.53;;;19.91
64175;BMP280;50469;50.438;-119.202;2023-07-31T08:15:02;97174.44;;;20.32
64175;BMP280;50469;50.438;-119.202;2023-07-31T08:17:32;97176.31;;;20.55
64175;BMP280;50469;50.438;-119.202;2023-07-31T08:20:00;97178.94;;;20.50
64175;BMP280;50469;50.438;-119.202;2023-07-31T08:22:28;97181.38;;;20.48
64175;BMP280;50469;50.438;-119.202;2023-07-31T08:24:56;97181.66;;;20.35
64175;BMP280;50469;50.438;-119.202;2023-07-31T08:27:24;97184.84;;;20.48
64175;BMP280;50469;50.438;-119.202;2023-07-31T08:29:55;97185.31;;;20.61
64175;BMP280;50469;50.438;-119.202;2023-07-31T08:32:23;97186.78;;;20.62
64175;BMP280;50469;50.438;-119.202;2023-07-31T08:34:51;97191.41;;;20.56
64175;BMP280;50469;50.438;-119.202;2023-07-31T08:37:25;97186.59;;;20.51
64175;BMP280;50469;50.438;-119.202;2023-07-31T08:39:54;97184.75;;;20.57
64175;BMP280;50469;50.438;-119.202;2023-07-31T08:42:24;97191.31;;;20.36
64175;BMP280;50469;50.438;-119.202;2023-07-31T08:44:56;97186.16;;;20.23
64175;BMP280;50469;50.438;-119.202;2023-07-31T08:47:25;97199.63;;;20.17
64175;BMP280;50469;50.438;-119.202;2023-07-31T08:49:55;97198.94;;;20.08
64175;BMP280;50469;50.438;-119.202;2023-07-31T08:52:23;97191.97;;;20.31
64175;BMP280;50469;50.438;-119.202;2023-07-31T08:54:54;97192.78;;;20.37
64175;BMP280;50469;50.438;-119.202;2023-07-31T08:57:22;97195.09;;;20.53
64175;BMP280;50469;50.438;-119.202;2023-07-31T08:59:50;97195.63;;;20.42
64175;BMP280;50469;50.438;-119.202;2023-07-31T09:02:21;97201.78;;;20.28
64175;BMP280;50469;50.438;-119.202;2023-07-31T09:04:51;97210.63;;;20.23
64175;BMP280;50469;50.438;-119.202;2023-07-31T09:07:23;97207.66;;;19.25
64175;BMP280;50469;50.438;-119.202;2023-07-31T09:09:52;97206.59;;;18.62
64175;BMP280;50469;50.438;-119.202;2023-07-31T09:12:21;97204.41;;;18.42
64175;BMP280;50469;50.438;-119.202;2023-07-31T09:14:51;97214.63;;;18.28
64175;BMP280;50469;50.438;-119.202;2023-07-31T09:17:35;97213.72;;;18.50
64175;BMP280;50469;50.438;-119.202;2023-07-31T09:20:17;97212.81;;;18.53
64175;BMP280;50469;50.438;-119.202;2023-07-31T09:22:47;97206.72;;;18.86
64175;BMP280;50469;50.438;-119.202;2023-07-31T09:25:16;97212.13;;;19.28
64175;BMP280;50469;50.438;-119.202;2023-07-31T09:28:01;97205.34;;;19.33
64175;BMP280;50469;50.438;-119.202;2023-07-31T09:30:30;97215.25;;;19.36
64175;BMP280;50469;50.438;-119.202;2023-07-31T09:33:03;97218.94;;;19.57
64175;BMP280;50469;50.438;-119.202;2023-07-31T09:35:36;97223.06;;;19.52
64175;BMP280;50469;50.438;-119.202;2023-07-31T09:38:12;97225.50;;;19.41
64175;BMP280;50469;50.438;-119.202;2023-07-31T09:40:42;97228.91;;;18.84
64175;BMP280;50469;50.438;-119.202;2023-07-31T09:43:12;97233.00;;;18.06
64175;BMP280;50469;50.438;-119.202;2023-07-31T09:45:42;97223.81;;;18.13
64175;BMP280;50469;50.438;-119.202;2023-07-31T09:48:19;97226.31;;;18.90
64175;BMP280;50469;50.438;-119.202;2023-07-31T09:50:48;97231.09;;;19.37
64175;BMP280;50469;50.438;-119.202;2023-07-31T09:53:19;97231.50;;;19.45
64175;BMP280;50469;50.438;-119.202;2023-07-31T09:55:47;97228.69;;;19.39
64175;BMP280;50469;50.438;-119.202;2023-07-31T09:58:19;97240.47;;;19.36
64175;BMP280;50469;50.438;-119.202;2023-07-31T10:00:49;97240.81;;;19.29
64175;BMP280;50469;50.438;-119.202;2023-07-31T10:03:20;97237.38;;;19.19
64175;BMP280;50469;50.438;-119.202;2023-07-31T10:05:53;97243.41;;;19.14
64175;BMP280;50469;50.438;-119.202;2023-07-31T10:08:27;97234.97;;;19.12
64175;BMP280;50469;50.438;-119.202;2023-07-31T10:11:01;97247.50;;;19.10
64175;BMP280;50469;50.438;-119.202;2023-07-31T10:13:33;97246.44;;;19.16
64175;BMP280;50469;50.438;-119.202;2023-07-31T10:16:02;97249.31;;;19.04
64175;BMP280;50469;50.438;-119.202;2023-07-31T10:18:31;97254.63;;;19.07
64175;BMP280;50469;50.438;-119.202;2023-07-31T10:20:59;97255.63;;;19.19
64175;BMP280;50469;50.438;-119.202;2023-07-31T10:23:28;97267.69;;;19.09
64175;BMP280;50469;50.438;-119.202;2023-07-31T10:25:57;97264.75;;;18.97
64175;BMP280;50469;50.438;-119.202;2023-07-31T10:28:27;97267.69;;;19.09
64175;BMP280;50469;50.438;-119.202;2023-07-31T10:30:55;97276.31;;;19.07
64175;BMP280;50469;50.438;-119.202;2023-07-31T10:33:29;97269.00;;;18.80
64175;BMP280;50469;50.438;-119.202;2023-07-31T10:36:18;97276.69;;;18.72
64175;BMP280;50469;50.438;-119.202;2023-07-31T10:38:49;97275.31;;;18.77
64175;BMP280;50469;50.438;-119.202;2023-07-31T10:41:20;97279.84;;;18.34
64175;BMP280;50469;50.438;-119.202;2023-07-31T10:44:00;97281.94;;;17.53
64175;BMP280;50469;50.438;-119.202;2023-07-31T10:46:30;97282.19;;;17.46
64175;BMP280;50469;50.438;-119.202;2023-07-31T10:49:02;97279.41;;;17.68
64175;BMP280;50469;50.438;-119.202;2023-07-31T10:51:34;97285.63;;;17.77
64175;BMP280;50469;50.438;-119.202;2023-07-31T10:54:16;97281.16;;;17.93
64175;BMP280;50469;50.438;-119.202;2023-07-31T10:56:50;97285.97;;;18.07
64175;BMP280;50469;50.438;-119.202;2023-07-31T10:59:18;97296.50;;;17.96
64175;BMP280;50469;50.438;-119.202;2023-07-31T11:01:56;97294.94;;;17.76
64175;BMP280;50469;50.438;-119.202;2023-07-31T11:04:27;97307.09;;;17.41
64175;BMP280;50469;50.438;-119.202;2023-07-31T11:07:00;97308.31;;;17.08
64175;BMP280;50469;50.438;-119.202;2023-07-31T11:09:31;97308.19;;;17.12
64175;BMP280;50469;50.438;-119.202;2023-07-31T11:12:06;97303.91;;;17.24
64175;BMP280;50469;50.438;-119.202;2023-07-31T11:14:36;97313.06;;;17.57
64175;BMP280;50469;50.438;-119.202;2023-07-31T11:17:07;97318.72;;;17.72
64175;BMP280;50469;50.438;-119.202;2023-07-31T11:19:38;97311.81;;;17.90
64175;BMP280;50469;50.438;-119.202;2023-07-31T11:22:07;97313.31;;;17.81
64175;BMP280;50469;50.438;-119.202;2023-07-31T11:24:35;97317.97;;;17.81
64175;BMP280;50469;50.438;-119.202;2023-07-31T11:27:07;97315.88;;;17.85
64175;BMP280;50469;50.438;-119.202;2023-07-31T11:29:35;97320.22;;;17.73
64175;BMP280;50469;50.438;-119.202;2023-07-31T11:32:15;97311.44;;;17.29
64175;BMP280;50469;50.438;-119.202;2023-07-31T11:34:58;97310.75;;;17.47
64175;BMP280;50469;50.438;-119.202;2023-07-31T11:37:39;97314.00;;;17.32
64175;BMP280;50469;50.438;-119.202;2023-07-31T11:40:16;97322.59;;;17.40
64175;BMP280;50469;50.438;-119.202;2023-07-31T11:42:46;97323.41;;;17.50
64175;BMP280;50469;50.438;-119.202;2023-07-31T11:45:14;97323.75;;;17.61
64175;BMP280;50469;50.438;-119.202;2023-07-31T11:47:45;97325.00;;;17.69
64175;BMP280;50469;50.438;-119.202;2023-07-31T11:50:13;97324.25;;;17.69
64175;BMP280;50469;50.438;-119.202;2023-07-31T11:52:44;97331.09;;;17.51
64175;BMP280;50469;50.438;-119.202;2023-07-31T11:55:12;97336.25;;;15.97
64175;BMP280;50469;50.438;-119.202;2023-07-31T11:57:43;97336.44;;;15.65
64175;BMP280;50469;50.438;-119.202;2023-07-31T12:00:16;97334.59;;;15.49
64175;BMP280;50469;50.438;-119.202;2023-07-31T12:02:45;97329.69;;;16.24
64175;BMP280;50469;50.438;-119.202;2023-07-31T12:05:17;97340.78;;;16.39
64175;BMP280;50469;50.438;-119.202;2023-07-31T12:07:55;97337.16;;;16.55
64175;BMP280;50469;50.438;-119.202;2023-07-31T12:10:25;97341.06;;;17.10
64175;BMP280;50469;50.438;-119.202;2023-07-31T12:13:03;97340.25;;;17.23
64175;BMP280;50469;50.438;-119.202;2023-07-31T12:15:43;97347.53;;;17.35
64175;BMP280;50469;50.438;-119.202;2023-07-31T12:18:15;97344.69;;;17.29
64175;BMP280;50469;50.438;-119.202;2023-07-31T12:20:48;97352.81;;;17.29
64175;BMP280;50469;50.438;-119.202;2023-07-31T12:23:21;97355.50;;;17.29
64175;BMP280;50469;50.438;-119.202;2023-07-31T12:26:00;97359.59;;;17.34
64175;BMP280;50469;50.438;-119.202;2023-07-31T12:28:46;97366.75;;;17.28
64175;BMP280;50469;50.438;-119.202;2023-07-31T12:31:21;97361.44;;;17.24
64175;BMP280;50469;50.438;-119.202;2023-07-31T12:33:52;97366.00;;;17.27
64175;BMP280;50469;50.438;-119.202;2023-07-31T12:36:24;97366.81;;;17.37
64175;BMP280;50469;50.438;-119.202;2023-07-31T12:38:55;97360.94;;;17.39
64175;BMP280;50469;50.438;-119.202;2023-07-31T12:41:23;97367.25;;;17.35
64175;BMP280;50469;50.438;-119.202;2023-07-31T12:43:54;97369.88;;;17.26
64175;BMP280;50469;50.438;-119.202;2023-07-31T12:46:22;97366.25;;;17.20
64175;BMP280;50469;50.438;-119.202;2023-07-31T12:48:50;97374.56;;;17.26
64175;BMP280;50469;50.438;-119.202;2023-07-31T12:51:21;97372.47;;;17.30
64175;BMP280;50469;50.438;-119.202;2023-07-31T12:53:49;97365.56;;;17.29
64175;BMP280;50469;50.438;-119.202;2023-07-31T12:56:17;97379.38;;;17.31
64175;BMP280;50469;50.438;-119.202;2023-07-31T12:58:45;97372.78;;;17.32
64175;BMP280;50469;50.438;-119.202;2023-07-31T13:01:14;97375.81;;;17.12
64175;BMP280;50469;50.438;-119.202;2023-07-31T13:03:45;97380.31;;;16.93
64175;BMP280;50469;50.438;-119.202;2023-07-31T13:06:14;97378.56;;;17.21
64175;BMP280;50469;50.438;-119.202;2023-07-31T13:08:42;97379.34;;;17.22
64175;BMP280;50469;50.438;-119.202;2023-07-31T13:11:13;97384.44;;;17.42
64175;BMP280;50469;50.438;-119.202;2023-07-31T13:13:41;97382.34;;;17.46
64175;BMP280;50469;50.438;-119.202;2023-07-31T13:16:12;97384.50;;;17.60
64175;BMP280;50469;50.438;-119.202;2023-07-31T13:18:40;97393.47;;;18.69
64175;BMP280;50469;50.438;-119.202;2023-07-31T13:21:08;97402.72;;;21.78
64175;BMP280;50469;50.438;-119.202;2023-07-31T13:23:36;97404.47;;;22.36
64175;BMP280;50469;50.438;-119.202;2023-07-31T13:26:06;97416.78;;;22.93
64175;BMP280;50469;50.438;-119.202;2023-07-31T13:28:35;97418.31;;;23.95
64175;BMP280;50469;50.438;-119.202;2023-07-31T13:31:03;97410.09;;;24.60
64175;BMP280;50469;50.438;-119.202;2023-07-31T13:33:31;97418.78;;;23.93
64175;BMP280;50469;50.438;-119.202;2023-07-31T13:36:05;97426.25;;;24.52
64175;BMP280;50469;50.438;-119.202;2023-07-31T13:38:33;97436.97;;;24.50
64175;BMP280;50469;50.438;-119.202;2023-07-31T13:41:04;97431.31;;;24.87
64175;BMP280;50469;50.438;-119.202;2023-07-31T13:43:32;97432.06;;;25.38
64175;BMP280;50469;50.438;-119.202;2023-07-31T13:46:00;97444.03;;;24.91
64175;BMP280;50469;50.438;-119.202;2023-07-31T13:48:34;97447.47;;;25.92
64175;BMP280;50469;50.438;-119.202;2023-07-31T13:51:04;97447.50;;;25.64
64175;BMP280;50469;50.438;-119.202;2023-07-31T13:53:32;97444.13;;;26.22